Sun City, Kansas
Current Conditions -  °F | °C
As of 11:55 PM on Wednesday 22 Oct 2014 (Local Time) from KPTT Reporting Station
Thunderstorm Thunderstorm  
Wind Chill: 59°   Ceiling: 3600
Heat Index: 59°   Visibility: 10mi
Dew Point: 55°   Wind: 9mph
Humidity: 88%   Direction: 200°SSW
Pressure: 30.12"   Gusts: NA
Location:  37.38°N, 98.92°W
Report Text: KPTT 230455Z AUTO 20008KT 10SM VCTS SCT020 BKN036 OVC075 15/13 A3012 RMK AO2 LTG DSNT SW AND W
Loading
Personal Weather Stations






























Interactive Weather Map
Tropical Storm Tracking
New forecast layout! Learn more

10-Day Weather Forecast

Advertisements
Track Severe Weather on mobile